Queen Of Surrey — VG8177 — position and weather

sailwx.info

Track history (hours):
 
Tides and Currents Weather Stations Pressure Air Temp Water Temp Dewpoint Dewpoint Depression Visibility Wind Speed Wind Dir Waves Ship Positions

Queen Of Surrey

Last reported at 2018-Jan-21 07:00 UTC. Time now 2018-Jan-21 07:06 UTC.
Position N 49°23' W 123°17'.

Length 140 m; draft 6 m.

Type: Passenger vessel. MMSI: 316001262.

Date/timePositionNaut miles runAvg speedWind from/ knotsBaromVisibWave heightAir tempDewpointWater temp
2018-Jan-21 07:00N 49°23' W 123°17'1 1.2
2018-Jan-21 06:28N 49°23' W 123°16'714.8
2018-Jan-21 06:00N 49°19' W 123°25'918.8
2018-Jan-21 05:30N 49°16' W 123°39'5 3.3
2018-Jan-21 03:50N 49°16' W 123°47'618.7
2018-Jan-21 03:30N 49°17' W 123°38'918.8
2018-Jan-21 03:00N 49°19' W 123°24'6 7.2
2018-Jan-21 02:12N 49°23' W 123°16'1 5.2
2018-Jan-21 01:59N 49°24' W 123°16'715.1
2018-Jan-21 01:30N 49°26' W 123°27'1 1.9
2018-Jan-21 01:00N 49°26' W 123°28'814.0
2018-Jan-21 00:25N 49°23' W 123°16'0 0.4
2018-Jan-20 23:53N 49°23' W 123°16'614.3
2018-Jan-20 23:29N 49°25' W 123°24'3 6.1
2018-Jan-20 22:59N 49°26' W 123°28'5 9.6
2018-Jan-20 22:30N 49°25' W 123°21'4 7.0
2018-Jan-20 21:54N 49°23' W 123°16'4 9.2
2018-Jan-20 21:30N 49°26' W 123°19'612.1
2018-Jan-20 21:00N 49°26' W 123°28'0 1.0
2018-Jan-20 20:30N 49°26' W 123°28'814.9
2018-Jan-20 19:58N 49°23' W 123°16'1 1.5
2018-Jan-20 19:30N 49°23' W 123°16'713.6
2018-Jan-20 19:00N 49°25' W 123°26'2 3.0
2018-Jan-20 18:29N 49°26' W 123°28'713.2
2018-Jan-20 17:57N 49°25' W 123°17'3 5.6
2018-Jan-20 17:29N 49°23' W 123°16'4 8.6
2018-Jan-20 17:00N 49°25' W 123°21'5 9.6
2018-Jan-20 16:30N 49°26' W 123°28'2 3.3
2018-Jan-20 16:00N 49°25' W 123°26'713.6
2018-Jan-20 15:29N 49°23' W 123°16'0 0.2
2018-Jan-20 15:00N 49°23' W 123°16'713.6
2018-Jan-20 14:29N 49°25' W 123°26'2 2.6
2018-Jan-20 13:52N 49°26' W 123°28'0 0.0
2018-Jan-20 13:23N 49°26' W 123°28'0 0.0
2018-Jan-20 12:41N 49°26' W 123°28'0 0.0
2018-Jan-20 12:29N 49°26' W 123°28'0 0.0
2018-Jan-20 11:53N 49°26' W 123°28'0 0.0
2018-Jan-20 11:29N 49°26' W 123°28'0 0.0
2018-Jan-20 10:53N 49°26' W 123°28'0 0.0
2018-Jan-20 09:23N 49°26' W 123°28'0 0.0
2018-Jan-20 08:59N 49°26' W 123°28'0 0.0
2018-Jan-20 08:11N 49°26' W 123°28'0 0.0
2018-Jan-20 07:41N 49°26' W 123°28'0 1.6
2018-Jan-20 07:30N 49°26' W 123°28'816.2
2018-Jan-20 07:00N 49°23' W 123°17'0 0.4
2018-Jan-20 06:31N 49°23' W 123°17'918.5
2018-Jan-20 06:00N 49°18' W 123°28'15 8.4
2018-Jan-20 04:11N 49°15' W 123°51'419.8
2018-Jan-20 03:59N 49°16' W 123°46'919.6
2018-Jan-20 03:30N 49°18' W 123°32'1018.7
2018-Jan-20 02:59N 49°22' W 123°18'1 2.1
2018-Jan-20 02:19N 49°23' W 123°16'412.9
2018-Jan-20 01:59N 49°25' W 123°21'5 9.5
2018-Jan-20 01:29N 49°26' W 123°28'3 6.2
2018-Jan-20 00:59N 49°25' W 123°24'6 5.9
2018-Jan-20 00:03N 49°23' W 123°16'1 8.3
2018-Jan-19 23:59N 49°23' W 123°16'816.6
2018-Jan-19 23:30N 49°26' W 123°28'0 0.8
2018-Jan-19 23:00N 49°26' W 123°28'611.8
2018-Jan-19 22:30N 49°26' W 123°19'4 5.3
2018-Jan-19 21:48N 49°23' W 123°16'311.4
2018-Jan-19 21:30N 49°26' W 123°18'712.8
2018-Jan-19 21:00N 49°26' W 123°28'1 1.3
2018-Jan-19 20:30N 49°26' W 123°27'815.7
2018-Jan-19 20:00N 49°23' W 123°16'0 0.5
2018-Jan-19 19:30N 49°23' W 123°16'714.9
2018-Jan-19 19:01N 49°25' W 123°27'1 2.4
2018-Jan-19 18:29N 49°26' W 123°28'612.2
2018-Jan-19 17:59N 49°26' W 123°19'3 4.6
2018-Jan-19 17:18N 49°23' W 123°16'413.4
2018-Jan-19 16:59N 49°25' W 123°21'5 9.8
2018-Jan-19 16:30N 49°26' W 123°28'1 2.7
2018-Jan-19 16:01N 49°25' W 123°27'711.8
2018-Jan-19 15:24N 49°23' W 123°16'0 0.0
2018-Jan-19 15:00N 49°23' W 123°16'713.2
2018-Jan-19 14:30N 49°25' W 123°25'2 4.1
2018-Jan-19 14:01N 49°26' W 123°28'0 0.0
2018-Jan-19 13:27N 49°26' W 123°28'0 0.0
2018-Jan-19 13:00N 49°26' W 123°28'0 0.0
2018-Jan-19 12:30N 49°26' W 123°28'0 0.0
2018-Jan-19 11:51N 49°26' W 123°28'0 0.0
2018-Jan-19 10:42N 49°26' W 123°28'0 0.0
2018-Jan-19 10:21N 49°26' W 123°28'0 0.0
2018-Jan-19 07:36N 49°26' W 123°28'0 4.4
2018-Jan-19 07:30N 49°26' W 123°28'815.4
2018-Jan-19 06:59N 49°23' W 123°16'0 0.5
2018-Jan-19 06:28N 49°23' W 123°16'715.9
2018-Jan-19 06:00N 49°18' W 123°25'918.7
2018-Jan-19 05:30N 49°16' W 123°39'10 7.5
2018-Jan-19 04:07N 49°13' W 123°54'218.0
2018-Jan-19 04:00N 49°14' W 123°51'918.6
2018-Jan-19 03:31N 49°17' W 123°38'918.6
2018-Jan-19 03:00N 49°19' W 123°24'6 6.7
2018-Jan-19 02:05N 49°23' W 123°16'216.7
2018-Jan-19 01:59N 49°25' W 123°17'815.2
2018-Jan-19 01:29N 49°26' W 123°28'1 2.0
2018-Jan-19 01:00N 49°26' W 123°27'8 7.1
2018-Jan-18 23:56N 49°23' W 123°16'614.1
2018-Jan-18 23:29N 49°25' W 123°25'2 4.7
2018-Jan-18 23:00N 49°26' W 123°28'510.3
2018-Jan-18 22:31N 49°26' W 123°21'4 7.4
2018-Jan-18 21:58N 49°23' W 123°16'4 7.7
2018-Jan-18 21:29N 49°26' W 123°20'611.9
2018-Jan-18 21:00N 49°26' W 123°28'1 1.1
2018-Jan-18 20:30N 49°26' W 123°28'815.2
2018-Jan-18 20:00N 49°23' W 123°16'1 1.2
2018-Jan-18 19:28N 49°23' W 123°16'614.1
2018-Jan-18 19:00N 49°25' W 123°25'2 3.8
2018-Jan-18 18:28N 49°26' W 123°28'713.1
2018-Jan-18 17:58N 49°26' W 123°18'3 5.4
2018-Jan-18 17:21N 49°23' W 123°16'411.7
2018-Jan-18 17:00N 49°25' W 123°20'510.4
2018-Jan-18 16:30N 49°26' W 123°28'2 3.3
2018-Jan-18 16:00N 49°25' W 123°26'711.0
2018-Jan-18 15:22N 49°23' W 123°16'0 0.3
2018-Jan-18 15:00N 49°23' W 123°16'612.8
2018-Jan-18 14:30N 49°25' W 123°25'2 4.3
2018-Jan-18 13:59N 49°26' W 123°28'0 0.0
2018-Jan-18 13:28N 49°26' W 123°28'0 0.0
2018-Jan-18 12:58N 49°26' W 123°28'0 0.0
2018-Jan-18 12:28N 49°26' W 123°28'0 0.0
2018-Jan-18 11:52N 49°26' W 123°28'0 0.0
2018-Jan-18 11:25N 49°26' W 123°28'0 0.0
2018-Jan-18 10:58N 49°26' W 123°28'0 0.0
2018-Jan-18 10:28N 49°26' W 123°28'0 0.0
2018-Jan-18 09:55N 49°26' W 123°28'0 0.0
2018-Jan-18 09:13N 49°26' W 123°28'0 0.0
2018-Jan-18 07:49N 49°26' W 123°28'0 1.4
2018-Jan-18 07:30N 49°26' W 123°28'815.3
2018-Jan-18 06:59N 49°23' W 123°16'0 0.7
2018-Jan-18 06:28N 49°23' W 123°16'613.1
2018-Jan-18 06:00N 49°19' W 123°24'1019.8
2018-Jan-18 05:29N 49°16' W 123°39'11 8.3
2018-Jan-18 04:07N 49°13' W 123°56'419.3
2018-Jan-18 03:55N 49°14' W 123°50'819.7
2018-Jan-18 03:30N 49°17' W 123°39'1019.8
2018-Jan-18 03:00N 49°19' W 123°24'6 7.0
2018-Jan-18 02:06N 49°23' W 123°16'317.6
2018-Jan-18 01:57N 49°26' W 123°18'714.4
2018-Jan-18 01:29N 49°26' W 123°28'1 1.1
2018-Jan-18 01:00N 49°26' W 123°28'8 7.7
2018-Jan-17 23:58N 49°23' W 123°16'0 2.5
2018-Jan-17 23:54N 49°23' W 123°16'  
2018-Jan-12 14:59N 49°23' W 123°16'613.4
2018-Jan-12 14:30N 49°25' W 123°25'2 4.0
2018-Jan-12 13:57N 49°26' W 123°28'0 0.0
2018-Jan-12 13:23N 49°26' W 123°28'0 0.0
2018-Jan-12 12:59N 49°26' W 123°28'0 0.0
2018-Jan-12 12:23N 49°26' W 123°28'0 0.0
2018-Jan-12 11:50N 49°26' W 123°28'0 0.0
2018-Jan-12 11:23N 49°26' W 123°28'0 0.0
2018-Jan-12 10:59N 49°26' W 123°28'0 0.0
2018-Jan-12 10:23N 49°26' W 123°28'0 0.0
2018-Jan-12 09:59N 49°26' W 123°28'0 0.0
2018-Jan-12 09:11N 49°26' W 123°28'0 0.0
2018-Jan-12 08:53N 49°26' W 123°28'0 0.0
2018-Jan-12 08:14N 49°26' W 123°28'0 0.0
2018-Jan-12 07:56N 49°26' W 123°28'1 1.5
2018-Jan-12 07:30N 49°26' W 123°27'815.0
2018-Jan-12 07:00N 49°23' W 123°16'1 1.0
2018-Jan-12 06:28N 49°23' W 123°16'714.7
2018-Jan-12 06:00N 49°19' W 123°25'918.6
2018-Jan-12 05:30N 49°15' W 123°38'1310.5
2018-Jan-12 04:17N 49°12' W 123°57'617.5
2018-Jan-12 03:56N 49°15' W 123°49'918.5
2018-Jan-12 03:28N 49°17' W 123°36'818.6
2018-Jan-12 03:01N 49°19' W 123°23'610.4
2018-Jan-12 02:27N 49°23' W 123°16'0 0.7
2018-Jan-12 02:00N 49°23' W 123°16'816.1
2018-Jan-12 01:30N 49°26' W 123°28'0 0.8
2018-Jan-12 01:00N 49°26' W 123°28'714.5
2018-Jan-12 00:30N 49°25' W 123°17'2 4.0
2018-Jan-11 23:55N 49°23' W 123°16'613.7
2018-Jan-11 23:30N 49°25' W 123°24'3 5.4
2018-Jan-11 22:59N 49°26' W 123°28'510.1
2018-Jan-11 22:30N 49°26' W 123°21'4 7.9
2018-Jan-11 21:58N 49°23' W 123°16'3 7.0
2018-Jan-11 21:30N 49°26' W 123°18'713.2
2018-Jan-11 21:00N 49°26' W 123°28'0 0.7
2018-Jan-11 20:30N 49°26' W 123°28'815.3
2018-Jan-11 20:00N 49°24' W 123°17'1 1.7
2018-Jan-11 19:27N 49°23' W 123°16'614.5
2018-Jan-11 19:01N 49°25' W 123°25'2 4.3
2018-Jan-11 18:30N 49°26' W 123°28'612.4
2018-Jan-11 18:00N 49°26' W 123°19'4 7.0
2018-Jan-11 17:29N 49°23' W 123°16'4 8.7
2018-Jan-11 17:00N 49°25' W 123°21'5 9.7
2018-Jan-11 16:30N 49°26' W 123°28'2 3.9
2018-Jan-11 16:00N 49°25' W 123°26'713.0
2018-Jan-11 15:30N 49°23' W 123°16'0 0.1
2018-Jan-11 15:00N 49°23' W 123°16'613.0
2018-Jan-11 14:30N 49°25' W 123°25'2 4.1
2018-Jan-11 13:58N 49°26' W 123°28'0 0.0
2018-Jan-11 13:30N 49°26' W 123°28'0 0.0
2018-Jan-11 12:42N 49°26' W 123°28'0 0.0
2018-Jan-11 12:30N 49°26' W 123°28'0 0.0
2018-Jan-11 12:00N 49°26' W 123°28'0 0.0
2018-Jan-11 11:15N 49°26' W 123°28'0 0.0
2018-Jan-11 10:27N 49°26' W 123°28'0 0.0
2018-Jan-11 09:54N 49°26' W 123°28'0 0.0
2018-Jan-11 09:24N 49°26' W 123°28'0 0.0
2018-Jan-11 09:00N 49°26' W 123°28'0 0.0
2018-Jan-11 08:30N 49°26' W 123°28'0 0.0
2018-Jan-11 07:57N 49°26' W 123°28'0 0.9
2018-Jan-11 07:30N 49°26' W 123°28'815.5
2018-Jan-11 07:00N 49°24' W 123°17'  
Track history (hours):
 
Tides and Currents Weather Stations Pressure Air Temp Water Temp Dewpoint Dewpoint Depression Visibility Wind Speed Wind Dir Waves Ship Positions

Queen Of Surrey

Last reported at 2018-Jan-21 07:00 UTC. Time now 2018-Jan-21 07:06 UTC.
Position N 49°23' W 123°17'.

Length 140 m; draft 6 m.

Type: Passenger vessel. MMSI: 316001262.

Date/timePositionNaut miles runAvg speedWind from/ knotsBaromVisibWave heightAir tempDewpointWater temp
2018-Jan-21 07:00N 49°23' W 123°17'1 1.2
2018-Jan-21 06:28N 49°23' W 123°16'714.8
2018-Jan-21 06:00N 49°19' W 123°25'918.8
2018-Jan-21 05:30N 49°16' W 123°39'5 3.3
2018-Jan-21 03:50N 49°16' W 123°47'618.7
2018-Jan-21 03:30N 49°17' W 123°38'918.8
2018-Jan-21 03:00N 49°19' W 123°24'6 7.2
2018-Jan-21 02:12N 49°23' W 123°16'1 5.2
2018-Jan-21 01:59N 49°24' W 123°16'715.1
2018-Jan-21 01:30N 49°26' W 123°27'1 1.9
2018-Jan-21 01:00N 49°26' W 123°28'814.0
2018-Jan-21 00:25N 49°23' W 123°16'0 0.4
2018-Jan-20 23:53N 49°23' W 123°16'614.3
2018-Jan-20 23:29N 49°25' W 123°24'3 6.1
2018-Jan-20 22:59N 49°26' W 123°28'5 9.6
2018-Jan-20 22:30N 49°25' W 123°21'4 7.0
2018-Jan-20 21:54N 49°23' W 123°16'4 9.2
2018-Jan-20 21:30N 49°26' W 123°19'612.1
2018-Jan-20 21:00N 49°26' W 123°28'0 1.0
2018-Jan-20 20:30N 49°26' W 123°28'814.9
2018-Jan-20 19:58N 49°23' W 123°16'1 1.5
2018-Jan-20 19:30N 49°23' W 123°16'713.6
2018-Jan-20 19:00N 49°25' W 123°26'2 3.0
2018-Jan-20 18:29N 49°26' W 123°28'713.2
2018-Jan-20 17:57N 49°25' W 123°17'3 5.6
2018-Jan-20 17:29N 49°23' W 123°16'4 8.6
2018-Jan-20 17:00N 49°25' W 123°21'5 9.6
2018-Jan-20 16:30N 49°26' W 123°28'2 3.3
2018-Jan-20 16:00N 49°25' W 123°26'713.6
2018-Jan-20 15:29N 49°23' W 123°16'0 0.2
2018-Jan-20 15:00N 49°23' W 123°16'713.6
2018-Jan-20 14:29N 49°25' W 123°26'2 2.6
2018-Jan-20 13:52N 49°26' W 123°28'0 0.0
2018-Jan-20 13:23N 49°26' W 123°28'0 0.0
2018-Jan-20 12:41N 49°26' W 123°28'0 0.0
2018-Jan-20 12:29N 49°26' W 123°28'0 0.0
2018-Jan-20 11:53N 49°26' W 123°28'0 0.0
2018-Jan-20 11:29N 49°26' W 123°28'0 0.0
2018-Jan-20 10:53N 49°26' W 123°28'0 0.0
2018-Jan-20 09:23N 49°26' W 123°28'0 0.0
2018-Jan-20 08:59N 49°26' W 123°28'0 0.0
2018-Jan-20 08:11N 49°26' W 123°28'0 0.0
2018-Jan-20 07:41N 49°26' W 123°28'0 1.6
2018-Jan-20 07:30N 49°26' W 123°28'816.2
2018-Jan-20 07:00N 49°23' W 123°17'0 0.4
2018-Jan-20 06:31N 49°23' W 123°17'918.5
2018-Jan-20 06:00N 49°18' W 123°28'15 8.4
2018-Jan-20 04:11N 49°15' W 123°51'419.8
2018-Jan-20 03:59N 49°16' W 123°46'919.6
2018-Jan-20 03:30N 49°18' W 123°32'1018.7
2018-Jan-20 02:59N 49°22' W 123°18'1 2.1
2018-Jan-20 02:19N 49°23' W 123°16'412.9
2018-Jan-20 01:59N 49°25' W 123°21'5 9.5
2018-Jan-20 01:29N 49°26' W 123°28'3 6.2
2018-Jan-20 00:59N 49°25' W 123°24'6 5.9
2018-Jan-20 00:03N 49°23' W 123°16'1 8.3
2018-Jan-19 23:59N 49°23' W 123°16'816.6
2018-Jan-19 23:30N 49°26' W 123°28'0 0.8
2018-Jan-19 23:00N 49°26' W 123°28'611.8
2018-Jan-19 22:30N 49°26' W 123°19'4 5.3
2018-Jan-19 21:48N 49°23' W 123°16'311.4
2018-Jan-19 21:30N 49°26' W 123°18'712.8
2018-Jan-19 21:00N 49°26' W 123°28'1 1.3
2018-Jan-19 20:30N 49°26' W 123°27'815.7
2018-Jan-19 20:00N 49°23' W 123°16'0 0.5
2018-Jan-19 19:30N 49°23' W 123°16'714.9
2018-Jan-19 19:01N 49°25' W 123°27'1 2.4
2018-Jan-19 18:29N 49°26' W 123°28'612.2
2018-Jan-19 17:59N 49°26' W 123°19'3 4.6
2018-Jan-19 17:18N 49°23' W 123°16'413.4
2018-Jan-19 16:59N 49°25' W 123°21'5 9.8
2018-Jan-19 16:30N 49°26' W 123°28'1 2.7
2018-Jan-19 16:01N 49°25' W 123°27'711.8
2018-Jan-19 15:24N 49°23' W 123°16'0 0.0
2018-Jan-19 15:00N 49°23' W 123°16'713.2
2018-Jan-19 14:30N 49°25' W 123°25'2 4.1
2018-Jan-19 14:01N 49°26' W 123°28'0 0.0
2018-Jan-19 13:27N 49°26' W 123°28'0 0.0
2018-Jan-19 13:00N 49°26' W 123°28'0 0.0
2018-Jan-19 12:30N 49°26' W 123°28'0 0.0
2018-Jan-19 11:51N 49°26' W 123°28'0 0.0
2018-Jan-19 10:42N 49°26' W 123°28'0 0.0
2018-Jan-19 10:21N 49°26' W 123°28'0 0.0
2018-Jan-19 07:36N 49°26' W 123°28'0 4.4
2018-Jan-19 07:30N 49°26' W 123°28'815.4
2018-Jan-19 06:59N 49°23' W 123°16'0 0.5
2018-Jan-19 06:28N 49°23' W 123°16'715.9
2018-Jan-19 06:00N 49°18' W 123°25'918.7
2018-Jan-19 05:30N 49°16' W 123°39'10 7.5
2018-Jan-19 04:07N 49°13' W 123°54'218.0
2018-Jan-19 04:00N 49°14' W 123°51'918.6
2018-Jan-19 03:31N 49°17' W 123°38'918.6
2018-Jan-19 03:00N 49°19' W 123°24'6 6.7
2018-Jan-19 02:05N 49°23' W 123°16'216.7
2018-Jan-19 01:59N 49°25' W 123°17'815.2
2018-Jan-19 01:29N 49°26' W 123°28'1 2.0
2018-Jan-19 01:00N 49°26' W 123°27'8 7.1
2018-Jan-18 23:56N 49°23' W 123°16'614.1
2018-Jan-18 23:29N 49°25' W 123°25'2 4.7
2018-Jan-18 23:00N 49°26' W 123°28'510.3
2018-Jan-18 22:31N 49°26' W 123°21'4 7.4
2018-Jan-18 21:58N 49°23' W 123°16'4 7.7
2018-Jan-18 21:29N 49°26' W 123°20'611.9
2018-Jan-18 21:00N 49°26' W 123°28'1 1.1
2018-Jan-18 20:30N 49°26' W 123°28'815.2
2018-Jan-18 20:00N 49°23' W 123°16'1 1.2
2018-Jan-18 19:28N 49°23' W 123°16'614.1
2018-Jan-18 19:00N 49°25' W 123°25'2 3.8
2018-Jan-18 18:28N 49°26' W 123°28'713.1
2018-Jan-18 17:58N 49°26' W 123°18'3 5.4
2018-Jan-18 17:21N 49°23' W 123°16'411.7
2018-Jan-18 17:00N 49°25' W 123°20'510.4
2018-Jan-18 16:30N 49°26' W 123°28'2 3.3
2018-Jan-18 16:00N 49°25' W 123°26'711.0
2018-Jan-18 15:22N 49°23' W 123°16'0 0.3
2018-Jan-18 15:00N 49°23' W 123°16'612.8
2018-Jan-18 14:30N 49°25' W 123°25'2 4.3
2018-Jan-18 13:59N 49°26' W 123°28'0 0.0
2018-Jan-18 13:28N 49°26' W 123°28'0 0.0
2018-Jan-18 12:58N 49°26' W 123°28'0 0.0
2018-Jan-18 12:28N 49°26' W 123°28'0 0.0
2018-Jan-18 11:52N 49°26' W 123°28'0 0.0
2018-Jan-18 11:25N 49°26' W 123°28'0 0.0
2018-Jan-18 10:58N 49°26' W 123°28'0 0.0
2018-Jan-18 10:28N 49°26' W 123°28'0 0.0
2018-Jan-18 09:55N 49°26' W 123°28'0 0.0
2018-Jan-18 09:13N 49°26' W 123°28'0 0.0
2018-Jan-18 07:49N 49°26' W 123°28'0 1.4
2018-Jan-18 07:30N 49°26' W 123°28'815.3
2018-Jan-18 06:59N 49°23' W 123°16'0 0.7
2018-Jan-18 06:28N 49°23' W 123°16'613.1
2018-Jan-18 06:00N 49°19' W 123°24'1019.8
2018-Jan-18 05:29N 49°16' W 123°39'11 8.3
2018-Jan-18 04:07N 49°13' W 123°56'419.3
2018-Jan-18 03:55N 49°14' W 123°50'819.7
2018-Jan-18 03:30N 49°17' W 123°39'1019.8
2018-Jan-18 03:00N 49°19' W 123°24'6 7.0
2018-Jan-18 02:06N 49°23' W 123°16'317.6
2018-Jan-18 01:57N 49°26' W 123°18'714.4
2018-Jan-18 01:29N 49°26' W 123°28'1 1.1
2018-Jan-18 01:00N 49°26' W 123°28'8 7.7
2018-Jan-17 23:58N 49°23' W 123°16'0 2.5
2018-Jan-17 23:54N 49°23' W 123°16'  
2018-Jan-12 14:59N 49°23' W 123°16'613.4
2018-Jan-12 14:30N 49°25' W 123°25'2 4.0
2018-Jan-12 13:57N 49°26' W 123°28'0 0.0
2018-Jan-12 13:23N 49°26' W 123°28'0 0.0
2018-Jan-12 12:59N 49°26' W 123°28'0 0.0
2018-Jan-12 12:23N 49°26' W 123°28'0 0.0
2018-Jan-12 11:50N 49°26' W 123°28'0 0.0
2018-Jan-12 11:23N 49°26' W 123°28'0 0.0
2018-Jan-12 10:59N 49°26' W 123°28'0 0.0
2018-Jan-12 10:23N 49°26' W 123°28'0 0.0
2018-Jan-12 09:59N 49°26' W 123°28'0 0.0
2018-Jan-12 09:11N 49°26' W 123°28'0 0.0
2018-Jan-12 08:53N 49°26' W 123°28'0 0.0
2018-Jan-12 08:14N 49°26' W 123°28'0 0.0
2018-Jan-12 07:56N 49°26' W 123°28'1 1.5
2018-Jan-12 07:30N 49°26' W 123°27'815.0
2018-Jan-12 07:00N 49°23' W 123°16'1 1.0
2018-Jan-12 06:28N 49°23' W 123°16'714.7
2018-Jan-12 06:00N 49°19' W 123°25'918.6
2018-Jan-12 05:30N 49°15' W 123°38'1310.5
2018-Jan-12 04:17N 49°12' W 123°57'617.5
2018-Jan-12 03:56N 49°15' W 123°49'918.5
2018-Jan-12 03:28N 49°17' W 123°36'818.6
2018-Jan-12 03:01N 49°19' W 123°23'610.4
2018-Jan-12 02:27N 49°23' W 123°16'0 0.7
2018-Jan-12 02:00N 49°23' W 123°16'816.1
2018-Jan-12 01:30N 49°26' W 123°28'0 0.8
2018-Jan-12 01:00N 49°26' W 123°28'714.5
2018-Jan-12 00:30N 49°25' W 123°17'2 4.0
2018-Jan-11 23:55N 49°23' W 123°16'613.7
2018-Jan-11 23:30N 49°25' W 123°24'3 5.4
2018-Jan-11 22:59N 49°26' W 123°28'510.1
2018-Jan-11 22:30N 49°26' W 123°21'4 7.9
2018-Jan-11 21:58N 49°23' W 123°16'3 7.0
2018-Jan-11 21:30N 49°26' W 123°18'713.2
2018-Jan-11 21:00N 49°26' W 123°28'0 0.7
2018-Jan-11 20:30N 49°26' W 123°28'815.3
2018-Jan-11 20:00N 49°24' W 123°17'1 1.7
2018-Jan-11 19:27N 49°23' W 123°16'614.5
2018-Jan-11 19:01N 49°25' W 123°25'2 4.3
2018-Jan-11 18:30N 49°26' W 123°28'612.4
2018-Jan-11 18:00N 49°26' W 123°19'4 7.0
2018-Jan-11 17:29N 49°23' W 123°16'4 8.7
2018-Jan-11 17:00N 49°25' W 123°21'5 9.7
2018-Jan-11 16:30N 49°26' W 123°28'2 3.9
2018-Jan-11 16:00N 49°25' W 123°26'713.0
2018-Jan-11 15:30N 49°23' W 123°16'0 0.1
2018-Jan-11 15:00N 49°23' W 123°16'613.0
2018-Jan-11 14:30N 49°25' W 123°25'2 4.1
2018-Jan-11 13:58N 49°26' W 123°28'0 0.0
2018-Jan-11 13:30N 49°26' W 123°28'0 0.0
2018-Jan-11 12:42N 49°26' W 123°28'0 0.0
2018-Jan-11 12:30N 49°26' W 123°28'0 0.0
2018-Jan-11 12:00N 49°26' W 123°28'0 0.0
2018-Jan-11 11:15N 49°26' W 123°28'0 0.0
2018-Jan-11 10:27N 49°26' W 123°28'0 0.0
2018-Jan-11 09:54N 49°26' W 123°28'0 0.0
2018-Jan-11 09:24N 49°26' W 123°28'0 0.0
2018-Jan-11 09:00N 49°26' W 123°28'0 0.0
2018-Jan-11 08:30N 49°26' W 123°28'0 0.0
2018-Jan-11 07:57N 49°26' W 123°28'0 0.9
2018-Jan-11 07:30N 49°26' W 123°28'815.5
2018-Jan-11 07:00N 49°24' W 123°17'  

Dump ship's entire track history